sensor_id;sensor_type;location;lat;lon;timestamp;P1;durP1;ratioP1;P2;durP2;ratioP2
76939;SDS011;65885;55.848;35.916;2023-05-10T00:01:38;1.42;;;1.30;;
76939;SDS011;65885;55.848;35.916;2023-05-10T00:04:05;1.33;;;0.70;;
76939;SDS011;65885;55.848;35.916;2023-05-10T00:06:33;2.80;;;1.27;;
76939;SDS011;65885;55.848;35.916;2023-05-10T00:09:00;1.23;;;1.05;;
76939;SDS011;65885;55.848;35.916;2023-05-10T00:11:28;1.38;;;1.27;;
76939;SDS011;65885;55.848;35.916;2023-05-10T00:13:55;1.08;;;0.98;;
76939;SDS011;65885;55.848;35.916;2023-05-10T00:16:25;1.23;;;0.70;;
76939;SDS011;65885;55.848;35.916;2023-05-10T00:18:52;2.08;;;1.95;;
76939;SDS011;65885;55.848;35.916;2023-05-10T00:21:19;2.70;;;1.70;;
76939;SDS011;65885;55.848;35.916;2023-05-10T00:23:47;1.20;;;1.10;;
76939;SDS011;65885;55.848;35.916;2023-05-10T00:26:15;2.05;;;1.00;;
76939;SDS011;65885;55.848;35.916;2023-05-10T00:28:42;2.45;;;1.38;;
76939;SDS011;65885;55.848;35.916;2023-05-10T00:31:10;1.60;;;1.50;;
76939;SDS011;65885;55.848;35.916;2023-05-10T00:33:38;1.92;;;1.45;;
76939;SDS011;65885;55.848;35.916;2023-05-10T00:36:06;2.25;;;1.73;;
76939;SDS011;65885;55.848;35.916;2023-05-10T00:38:34;2.67;;;1.75;;
76939;SDS011;65885;55.848;35.916;2023-05-10T00:41:01;1.73;;;1.40;;
76939;SDS011;65885;55.848;35.916;2023-05-10T00:43:29;1.35;;;0.90;;
76939;SDS011;65885;55.848;35.916;2023-05-10T00:45:57;1.40;;;1.30;;
76939;SDS011;65885;55.848;35.916;2023-05-10T00:48:25;2.00;;;1.58;;
76939;SDS011;65885;55.848;35.916;2023-05-10T00:50:54;1.60;;;1.50;;
76939;SDS011;65885;55.848;35.916;2023-05-10T00:53:22;2.75;;;2.38;;
76939;SDS011;65885;55.848;35.916;2023-05-10T00:55:50;1.65;;;1.20;;
76939;SDS011;65885;55.848;35.916;2023-05-10T00:58:18;1.38;;;1.25;;
76939;SDS011;65885;55.848;35.916;2023-05-10T01:00:45;1.20;;;1.10;;
76939;SDS011;65885;55.848;35.916;2023-05-10T01:03:13;2.35;;;2.15;;
76939;SDS011;65885;55.848;35.916;2023-05-10T01:05:41;1.55;;;1.45;;
76939;SDS011;65885;55.848;35.916;2023-05-10T01:08:10;1.52;;;1.42;;
76939;SDS011;65885;55.848;35.916;2023-05-10T01:10:37;1.92;;;1.40;;
76939;SDS011;65885;55.848;35.916;2023-05-10T01:13:05;2.33;;;1.58;;
76939;SDS011;65885;55.848;35.916;2023-05-10T01:15:33;1.30;;;1.15;;
76939;SDS011;65885;55.848;35.916;2023-05-10T01:18:01;1.40;;;1.27;;
76939;SDS011;65885;55.848;35.916;2023-05-10T01:20:31;1.50;;;1.17;;
76939;SDS011;65885;55.848;35.916;2023-05-10T01:26:04;1.52;;;1.42;;
76939;SDS011;65885;55.848;35.916;2023-05-10T01:32:00;2.13;;;1.80;;
76939;SDS011;65885;55.848;35.916;2023-05-10T01:34:38;1.73;;;1.50;;
76939;SDS011;65885;55.848;35.916;2023-05-10T01:37:13;1.52;;;1.42;;
76939;SDS011;65885;55.848;35.916;2023-05-10T01:39:45;1.67;;;1.58;;
76939;SDS011;65885;55.848;35.916;2023-05-10T01:42:16;2.05;;;1.58;;
76939;SDS011;65885;55.848;35.916;2023-05-10T01:44:49;1.85;;;1.60;;
76939;SDS011;65885;55.848;35.916;2023-05-10T01:47:25;1.42;;;1.33;;
76939;SDS011;65885;55.848;35.916;2023-05-10T01:49:58;1.42;;;0.80;;
76939;SDS011;65885;55.848;35.916;2023-05-10T01:52:32;1.40;;;1.30;;
76939;SDS011;65885;55.848;35.916;2023-05-10T01:55:04;1.38;;;1.27;;
76939;SDS011;65885;55.848;35.916;2023-05-10T01:57:36;2.08;;;1.58;;
76939;SDS011;65885;55.848;35.916;2023-05-10T02:00:06;1.33;;;1.10;;
76939;SDS011;65885;55.848;35.916;2023-05-10T02:02:39;1.90;;;1.40;;
76939;SDS011;65885;55.848;35.916;2023-05-10T02:05:08;1.52;;;1.42;;
76939;SDS011;65885;55.848;35.916;2023-05-10T02:07:38;1.50;;;1.40;;
76939;SDS011;65885;55.848;35.916;2023-05-10T02:10:08;2.95;;;1.80;;
76939;SDS011;65885;55.848;35.916;2023-05-10T02:12:39;2.83;;;1.50;;
76939;SDS011;65885;55.848;35.916;2023-05-10T02:15:10;2.78;;;1.92;;
76939;SDS011;65885;55.848;35.916;2023-05-10T02:17:41;1.80;;;1.30;;
76939;SDS011;65885;55.848;35.916;2023-05-10T02:20:10;2.53;;;1.85;;
76939;SDS011;65885;55.848;35.916;2023-05-10T02:22:41;2.83;;;1.70;;
76939;SDS011;65885;55.848;35.916;2023-05-10T02:25:09;1.48;;;1.38;;
76939;SDS011;65885;55.848;35.916;2023-05-10T02:27:39;1.58;;;1.23;;
76939;SDS011;65885;55.848;35.916;2023-05-10T02:30:10;1.60;;;1.50;;
76939;SDS011;65885;55.848;35.916;2023-05-10T02:32:38;1.80;;;1.70;;
76939;SDS011;65885;55.848;35.916;2023-05-10T02:35:08;1.48;;;1.38;;
76939;SDS011;65885;55.848;35.916;2023-05-10T02:37:36;1.83;;;1.55;;
76939;SDS011;65885;55.848;35.916;2023-05-10T02:40:05;2.92;;;1.80;;
76939;SDS011;65885;55.848;35.916;2023-05-10T02:42:35;1.77;;;1.65;;
76939;SDS011;65885;55.848;35.916;2023-05-10T02:45:07;1.00;;;0.90;;
76939;SDS011;65885;55.848;35.916;2023-05-10T02:47:37;1.80;;;0.98;;
76939;SDS011;65885;55.848;35.916;2023-05-10T02:50:05;2.10;;;1.50;;
76939;SDS011;65885;55.848;35.916;2023-05-10T02:52:38;1.70;;;1.42;;
76939;SDS011;65885;55.848;35.916;2023-05-10T02:55:07;1.70;;;1.60;;
76939;SDS011;65885;55.848;35.916;2023-05-10T02:57:40;1.42;;;1.30;;
76939;SDS011;65885;55.848;35.916;2023-05-10T03:00:10;1.60;;;1.50;;
76939;SDS011;65885;55.848;35.916;2023-05-10T03:02:38;1.45;;;1.20;;
76939;SDS011;65885;55.848;35.916;2023-05-10T03:05:06;1.83;;;1.63;;
76939;SDS011;65885;55.848;35.916;2023-05-10T03:07:35;1.40;;;1.27;;
76939;SDS011;65885;55.848;35.916;2023-05-10T03:10:03;1.73;;;1.33;;
76939;SDS011;65885;55.848;35.916;2023-05-10T03:12:36;2.03;;;1.63;;
76939;SDS011;65885;55.848;35.916;2023-05-10T03:15:17;1.70;;;1.50;;
76939;SDS011;65885;55.848;35.916;2023-05-10T03:17:51;2.63;;;1.48;;
76939;SDS011;65885;55.848;35.916;2023-05-10T03:20:24;2.38;;;1.65;;
76939;SDS011;65885;55.848;35.916;2023-05-10T03:22:57;1.27;;;1.15;;
76939;SDS011;65885;55.848;35.916;2023-05-10T03:25:29;1.58;;;1.48;;
76939;SDS011;65885;55.848;35.916;2023-05-10T03:27:58;1.40;;;1.30;;
76939;SDS011;65885;55.848;35.916;2023-05-10T03:30:28;1.80;;;1.70;;
76939;SDS011;65885;55.848;35.916;2023-05-10T03:32:57;2.85;;;1.85;;
76939;SDS011;65885;55.848;35.916;2023-05-10T03:35:26;2.05;;;1.75;;
76939;SDS011;65885;55.848;35.916;2023-05-10T03:37:53;2.83;;;2.10;;
76939;SDS011;65885;55.848;35.916;2023-05-10T03:40:21;2.22;;;1.50;;
76939;SDS011;65885;55.848;35.916;2023-05-10T03:42:49;2.13;;;1.58;;
76939;SDS011;65885;55.848;35.916;2023-05-10T03:45:16;2.08;;;1.58;;
76939;SDS011;65885;55.848;35.916;2023-05-10T03:47:43;1.80;;;1.55;;
76939;SDS011;65885;55.848;35.916;2023-05-10T03:50:11;2.65;;;1.90;;
76939;SDS011;65885;55.848;35.916;2023-05-10T03:52:40;1.98;;;1.77;;
76939;SDS011;65885;55.848;35.916;2023-05-10T03:55:08;2.53;;;1.95;;
76939;SDS011;65885;55.848;35.916;2023-05-10T03:57:35;2.53;;;2.28;;
76939;SDS011;65885;55.848;35.916;2023-05-10T04:00:03;2.53;;;2.10;;
76939;SDS011;65885;55.848;35.916;2023-05-10T04:02:32;2.63;;;2.13;;
76939;SDS011;65885;55.848;35.916;2023-05-10T04:05:00;3.20;;;1.85;;
76939;SDS011;65885;55.848;35.916;2023-05-10T04:07:28;2.50;;;2.10;;
76939;SDS011;65885;55.848;35.916;2023-05-10T04:09:58;3.50;;;2.47;;
76939;SDS011;65885;55.848;35.916;2023-05-10T04:12:25;5.68;;;2.50;;
76939;SDS011;65885;55.848;35.916;2023-05-10T04:14:52;3.00;;;2.08;;
76939;SDS011;65885;55.848;35.916;2023-05-10T04:17:20;3.03;;;2.40;;
76939;SDS011;65885;55.848;35.916;2023-05-10T04:19:47;3.22;;;2.63;;
76939;SDS011;65885;55.848;35.916;2023-05-10T04:22:15;3.10;;;2.10;;
76939;SDS011;65885;55.848;35.916;2023-05-10T04:24:42;3.70;;;2.47;;
76939;SDS011;65885;55.848;35.916;2023-05-10T04:27:11;3.50;;;2.25;;
76939;SDS011;65885;55.848;35.916;2023-05-10T04:29:39;3.40;;;2.42;;
76939;SDS011;65885;55.848;35.916;2023-05-10T04:32:07;3.55;;;2.78;;
76939;SDS011;65885;55.848;35.916;2023-05-10T04:34:35;3.65;;;2.45;;
76939;SDS011;65885;55.848;35.916;2023-05-10T04:37:03;4.00;;;2.90;;
76939;SDS011;65885;55.848;35.916;2023-05-10T04:39:30;4.97;;;3.15;;
76939;SDS011;65885;55.848;35.916;2023-05-10T04:41:58;4.00;;;2.72;;
76939;SDS011;65885;55.848;35.916;2023-05-10T04:44:27;4.95;;;2.42;;
76939;SDS011;65885;55.848;35.916;2023-05-10T04:46:55;4.10;;;2.90;;
76939;SDS011;65885;55.848;35.916;2023-05-10T04:49:22;4.18;;;2.72;;
76939;SDS011;65885;55.848;35.916;2023-05-10T04:51:49;5.90;;;3.40;;
76939;SDS011;65885;55.848;35.916;2023-05-10T04:54:17;4.68;;;3.35;;
76939;SDS011;65885;55.848;35.916;2023-05-10T04:56:44;5.55;;;3.30;;
76939;SDS011;65885;55.848;35.916;2023-05-10T04:59:11;5.32;;;3.30;;
76939;SDS011;65885;55.848;35.916;2023-05-10T05:01:40;5.22;;;3.58;;
76939;SDS011;65885;55.848;35.916;2023-05-10T05:04:08;6.07;;;3.45;;
76939;SDS011;65885;55.848;35.916;2023-05-10T05:06:35;6.30;;;3.55;;
76939;SDS011;65885;55.848;35.916;2023-05-10T05:09:03;4.28;;;3.30;;
76939;SDS011;65885;55.848;35.916;2023-05-10T05:11:30;5.63;;;3.30;;
76939;SDS011;65885;55.848;35.916;2023-05-10T05:13:57;6.00;;;3.38;;
76939;SDS011;65885;55.848;35.916;2023-05-10T05:16:25;5.53;;;3.58;;
76939;SDS011;65885;55.848;35.916;2023-05-10T05:18:54;4.85;;;3.45;;
76939;SDS011;65885;55.848;35.916;2023-05-10T05:21:22;3.35;;;2.95;;
76939;SDS011;65885;55.848;35.916;2023-05-10T05:23:50;3.22;;;2.20;;
76939;SDS011;65885;55.848;35.916;2023-05-10T05:26:17;5.07;;;3.03;;
76939;SDS011;65885;55.848;35.916;2023-05-10T05:28:45;5.47;;;2.90;;
76939;SDS011;65885;55.848;35.916;2023-05-10T05:31:14;5.57;;;2.92;;
76939;SDS011;65885;55.848;35.916;2023-05-10T05:33:41;4.68;;;3.28;;
76939;SDS011;65885;55.848;35.916;2023-05-10T05:36:10;3.90;;;2.58;;
76939;SDS011;65885;55.848;35.916;2023-05-10T05:38:37;5.13;;;2.53;;
76939;SDS011;65885;55.848;35.916;2023-05-10T05:41:05;4.60;;;3.00;;
76939;SDS011;65885;55.848;35.916;2023-05-10T05:43:33;3.83;;;2.70;;
76939;SDS011;65885;55.848;35.916;2023-05-10T05:46:00;3.17;;;2.42;;
76939;SDS011;65885;55.848;35.916;2023-05-10T05:48:29;5.65;;;3.20;;
76939;SDS011;65885;55.848;35.916;2023-05-10T05:50:56;4.80;;;2.88;;
76939;SDS011;65885;55.848;35.916;2023-05-10T05:53:25;3.55;;;2.78;;
76939;SDS011;65885;55.848;35.916;2023-05-10T05:55:53;3.65;;;2.55;;
76939;SDS011;65885;55.848;35.916;2023-05-10T05:58:21;2.92;;;2.50;;
76939;SDS011;65885;55.848;35.916;2023-05-10T06:00:48;3.53;;;2.50;;
76939;SDS011;65885;55.848;35.916;2023-05-10T06:03:17;3.40;;;2.40;;
76939;SDS011;65885;55.848;35.916;2023-05-10T06:05:44;3.53;;;2.60;;
76939;SDS011;65885;55.848;35.916;2023-05-10T06:08:12;3.75;;;2.60;;
76939;SDS011;65885;55.848;35.916;2023-05-10T06:10:40;2.85;;;2.10;;
76939;SDS011;65885;55.848;35.916;2023-05-10T06:13:08;2.70;;;2.22;;
76939;SDS011;65885;55.848;35.916;2023-05-10T06:15:36;3.97;;;2.65;;
76939;SDS011;65885;55.848;35.916;2023-05-10T06:18:03;3.13;;;1.85;;
76939;SDS011;65885;55.848;35.916;2023-05-10T06:20:31;4.13;;;2.28;;
76939;SDS011;65885;55.848;35.916;2023-05-10T06:22:58;3.97;;;2.00;;
76939;SDS011;65885;55.848;35.916;2023-05-10T06:25:26;2.65;;;2.08;;
76939;SDS011;65885;55.848;35.916;2023-05-10T06:27:55;2.40;;;1.60;;
76939;SDS011;65885;55.848;35.916;2023-05-10T06:30:23;3.08;;;2.13;;
76939;SDS011;65885;55.848;35.916;2023-05-10T06:32:53;2.78;;;2.08;;
76939;SDS011;65885;55.848;35.916;2023-05-10T06:35:21;2.28;;;1.80;;
76939;SDS011;65885;55.848;35.916;2023-05-10T06:37:49;2.10;;;1.83;;
76939;SDS011;65885;55.848;35.916;2023-05-10T06:40:16;2.80;;;1.90;;
76939;SDS011;65885;55.848;35.916;2023-05-10T06:42:46;2.50;;;1.67;;
76939;SDS011;65885;55.848;35.916;2023-05-10T06:45:15;2.58;;;1.85;;
76939;SDS011;65885;55.848;35.916;2023-05-10T06:47:42;3.45;;;2.08;;
76939;SDS011;65885;55.848;35.916;2023-05-10T06:50:10;3.38;;;2.22;;
76939;SDS011;65885;55.848;35.916;2023-05-10T06:52:37;2.45;;;2.00;;
76939;SDS011;65885;55.848;35.916;2023-05-10T06:55:05;3.08;;;1.90;;
76939;SDS011;65885;55.848;35.916;2023-05-10T06:57:34;3.10;;;1.77;;
76939;SDS011;65885;55.848;35.916;2023-05-10T07:00:01;2.63;;;1.85;;
76939;SDS011;65885;55.848;35.916;2023-05-10T07:03:21;3.92;;;1.60;;
76939;SDS011;65885;55.848;35.916;2023-05-10T07:09:34;2.85;;;2.03;;
76939;SDS011;65885;55.848;35.916;2023-05-10T07:12:04;2.25;;;2.00;;
76939;SDS011;65885;55.848;35.916;2023-05-10T07:14:31;2.38;;;1.95;;
76939;SDS011;65885;55.848;35.916;2023-05-10T07:16:59;3.50;;;2.25;;
76939;SDS011;65885;55.848;35.916;2023-05-10T07:19:27;2.88;;;1.90;;
76939;SDS011;65885;55.848;35.916;2023-05-10T07:21:57;2.90;;;1.63;;
76939;SDS011;65885;55.848;35.916;2023-05-10T07:24:25;2.58;;;1.70;;
76939;SDS011;65885;55.848;35.916;2023-05-10T07:26:52;1.70;;;1.50;;
76939;SDS011;65885;55.848;35.916;2023-05-10T07:29:20;2.65;;;1.60;;
76939;SDS011;65885;55.848;35.916;2023-05-10T07:31:47;2.83;;;1.95;;
76939;SDS011;65885;55.848;35.916;2023-05-10T07:34:15;2.47;;;1.85;;
76939;SDS011;65885;55.848;35.916;2023-05-10T07:36:44;2.97;;;2.08;;
76939;SDS011;65885;55.848;35.916;2023-05-10T07:39:12;3.75;;;2.00;;
76939;SDS011;65885;55.848;35.916;2023-05-10T07:41:40;3.00;;;1.95;;
76939;SDS011;65885;55.848;35.916;2023-05-10T07:44:07;2.40;;;1.85;;
76939;SDS011;65885;55.848;35.916;2023-05-10T07:46:35;2.42;;;1.77;;
76939;SDS011;65885;55.848;35.916;2023-05-10T07:49:02;2.72;;;1.60;;
76939;SDS011;65885;55.848;35.916;2023-05-10T07:51:30;2.35;;;1.80;;
76939;SDS011;65885;55.848;35.916;2023-05-10T07:53:59;2.85;;;1.60;;
76939;SDS011;65885;55.848;35.916;2023-05-10T07:56:28;2.33;;;1.52;;
76939;SDS011;65885;55.848;35.916;2023-05-10T07:58:57;2.67;;;1.95;;
76939;SDS011;65885;55.848;35.916;2023-05-10T08:01:25;3.05;;;2.17;;
76939;SDS011;65885;55.848;35.916;2023-05-10T08:03:53;2.25;;;1.70;;
76939;SDS011;65885;55.848;35.916;2023-05-10T08:06:21;1.98;;;1.63;;
76939;SDS011;65885;55.848;35.916;2023-05-10T08:08:48;3.90;;;2.22;;
76939;SDS011;65885;55.848;35.916;2023-05-10T08:11:18;2.83;;;1.88;;
76939;SDS011;65885;55.848;35.916;2023-05-10T08:13:46;3.05;;;1.80;;
76939;SDS011;65885;55.848;35.916;2023-05-10T08:16:13;2.28;;;1.63;;
76939;SDS011;65885;55.848;35.916;2023-05-10T08:18:41;2.75;;;2.28;;
76939;SDS011;65885;55.848;35.916;2023-05-10T08:21:08;1.88;;;1.65;;
76939;SDS011;65885;55.848;35.916;2023-05-10T08:23:36;2.95;;;2.00;;
76939;SDS011;65885;55.848;35.916;2023-05-10T08:26:04;1.95;;;1.75;;
76939;SDS011;65885;55.848;35.916;2023-05-10T08:28:32;3.45;;;1.85;;
76939;SDS011;65885;55.848;35.916;2023-05-10T08:31:00;5.47;;;1.85;;
76939;SDS011;65885;55.848;35.916;2023-05-10T08:33:28;3.70;;;2.22;;
76939;SDS011;65885;55.848;35.916;2023-05-10T08:35:55;2.20;;;1.90;;
76939;SDS011;65885;55.848;35.916;2023-05-10T08:38:23;2.60;;;1.88;;
76939;SDS011;65885;55.848;35.916;2023-05-10T08:40:51;2.45;;;1.95;;
76939;SDS011;65885;55.848;35.916;2023-05-10T08:43:25;5.68;;;2.33;;
76939;SDS011;65885;55.848;35.916;2023-05-10T08:45:56;2.70;;;1.80;;
76939;SDS011;65885;55.848;35.916;2023-05-10T08:48:26;2.30;;;1.80;;
76939;SDS011;65885;55.848;35.916;2023-05-10T08:50:56;2.13;;;1.70;;
76939;SDS011;65885;55.848;35.916;2023-05-10T08:53:27;2.75;;;2.03;;
76939;SDS011;65885;55.848;35.916;2023-05-10T08:55:57;2.13;;;1.50;;
76939;SDS011;65885;55.848;35.916;2023-05-10T08:58:25;2.17;;;1.63;;
76939;SDS011;65885;55.848;35.916;2023-05-10T09:00:52;2.28;;;1.80;;
76939;SDS011;65885;55.848;35.916;2023-05-10T09:03:22;2.95;;;1.80;;
76939;SDS011;65885;55.848;35.916;2023-05-10T09:05:49;3.80;;;2.10;;
76939;SDS011;65885;55.848;35.916;2023-05-10T09:08:17;2.35;;;1.35;;
76939;SDS011;65885;55.848;35.916;2023-05-10T09:10:46;1.55;;;1.30;;
76939;SDS011;65885;55.848;35.916;2023-05-10T09:13:15;1.95;;;1.42;;
76939;SDS011;65885;55.848;35.916;2023-05-10T09:15:44;1.80;;;1.30;;
76939;SDS011;65885;55.848;35.916;2023-05-10T09:18:12;2.20;;;1.33;;
76939;SDS011;65885;55.848;35.916;2023-05-10T09:20:41;1.50;;;1.23;;
76939;SDS011;65885;55.848;35.916;2023-05-10T09:23:08;1.65;;;1.30;;
76939;SDS011;65885;55.848;35.916;2023-05-10T09:25:36;1.80;;;1.25;;
76939;SDS011;65885;55.848;35.916;2023-05-10T09:28:05;1.83;;;1.30;;
76939;SDS011;65885;55.848;35.916;2023-05-10T09:30:36;2.05;;;1.55;;
76939;SDS011;65885;55.848;35.916;2023-05-10T09:33:03;1.83;;;1.50;;
76939;SDS011;65885;55.848;35.916;2023-05-10T09:35:32;2.85;;;1.60;;
76939;SDS011;65885;55.848;35.916;2023-05-10T09:38:02;1.80;;;1.33;;
76939;SDS011;65885;55.848;35.916;2023-05-10T09:40:30;1.60;;;1.17;;
76939;SDS011;65885;55.848;35.916;2023-05-10T09:42:58;2.17;;;1.30;;
76939;SDS011;65885;55.848;35.916;2023-05-10T09:45:27;2.50;;;1.23;;
76939;SDS011;65885;55.848;35.916;2023-05-10T09:47:56;1.40;;;1.30;;
76939;SDS011;65885;55.848;35.916;2023-05-10T09:50:24;1.50;;;1.38;;
76939;SDS011;65885;55.848;35.916;2023-05-10T09:52:53;1.33;;;1.20;;
76939;SDS011;65885;55.848;35.916;2023-05-10T09:55:25;1.42;;;1.25;;
76939;SDS011;65885;55.848;35.916;2023-05-10T09:58:05;1.77;;;1.20;;
76939;SDS011;65885;55.848;35.916;2023-05-10T10:00:36;1.55;;;1.30;;
76939;SDS011;65885;55.848;35.916;2023-05-10T10:03:05;2.40;;;1.20;;
76939;SDS011;65885;55.848;35.916;2023-05-10T10:05:33;2.70;;;1.48;;
76939;SDS011;65885;55.848;35.916;2023-05-10T10:08:03;2.35;;;1.52;;
76939;SDS011;65885;55.848;35.916;2023-05-10T10:10:33;1.60;;;1.40;;
76939;SDS011;65885;55.848;35.916;2023-05-10T10:13:01;4.90;;;1.60;;
76939;SDS011;65885;55.848;35.916;2023-05-10T10:15:30;2.60;;;1.60;;
76939;SDS011;65885;55.848;35.916;2023-05-10T10:17:59;1.40;;;1.20;;
76939;SDS011;65885;55.848;35.916;2023-05-10T10:20:26;1.40;;;1.17;;
76939;SDS011;65885;55.848;35.916;2023-05-10T10:22:55;1.65;;;1.23;;
76939;SDS011;65885;55.848;35.916;2023-05-10T10:25:22;1.63;;;1.27;;
76939;SDS011;65885;55.848;35.916;2023-05-10T10:28:11;2.35;;;1.23;;
76939;SDS011;65885;55.848;35.916;2023-05-10T10:30:48;1.23;;;1.13;;
76939;SDS011;65885;55.848;35.916;2023-05-10T10:33:28;1.63;;;1.23;;
76939;SDS011;65885;55.848;35.916;2023-05-10T10:36:05;2.67;;;1.42;;
76939;SDS011;65885;55.848;35.916;2023-05-10T10:38:37;1.83;;;1.40;;
76939;SDS011;65885;55.848;35.916;2023-05-10T10:41:27;2.95;;;1.70;;
76939;SDS011;65885;55.848;35.916;2023-05-10T10:49:51;2.35;;;1.40;;
76939;SDS011;65885;55.848;35.916;2023-05-10T10:52:31;1.70;;;1.45;;
76939;SDS011;65885;55.848;35.916;2023-05-10T10:55:00;1.60;;;1.20;;
76939;SDS011;65885;55.848;35.916;2023-05-10T10:57:35;1.40;;;1.30;;
76939;SDS011;65885;55.848;35.916;2023-05-10T11:00:24;1.35;;;1.20;;
76939;SDS011;65885;55.848;35.916;2023-05-10T11:02:54;2.00;;;1.23;;
76939;SDS011;65885;55.848;35.916;2023-05-10T11:05:24;4.05;;;1.70;;
76939;SDS011;65885;55.848;35.916;2023-05-10T11:08:00;2.47;;;1.85;;
76939;SDS011;65885;55.848;35.916;2023-05-10T11:10:35;1.60;;;1.50;;
76939;SDS011;65885;55.848;35.916;2023-05-10T11:13:03;1.92;;;1.50;;
76939;SDS011;65885;55.848;35.916;2023-05-10T11:15:34;1.90;;;1.40;;
76939;SDS011;65885;55.848;35.916;2023-05-10T11:18:16;2.78;;;1.33;;
76939;SDS011;65885;55.848;35.916;2023-05-10T11:20:49;1.40;;;1.30;;
76939;SDS011;65885;55.848;35.916;2023-05-10T11:23:17;2.03;;;1.30;;
76939;SDS011;65885;55.848;35.916;2023-05-10T11:25:47;1.10;;;1.00;;
76939;SDS011;65885;55.848;35.916;2023-05-10T11:28:16;2.33;;;1.40;;
76939;SDS011;65885;55.848;35.916;2023-05-10T11:30:46;1.90;;;1.23;;
76939;SDS011;65885;55.848;35.916;2023-05-10T11:33:15;1.42;;;1.30;;
76939;SDS011;65885;55.848;35.916;2023-05-10T11:35:45;1.75;;;1.20;;
76939;SDS011;65885;55.848;35.916;2023-05-10T11:38:13;1.17;;;1.05;;
76939;SDS011;65885;55.848;35.916;2023-05-10T11:40:41;1.67;;;1.30;;
76939;SDS011;65885;55.848;35.916;2023-05-10T11:43:09;2.25;;;1.55;;
76939;SDS011;65885;55.848;35.916;2023-05-10T11:45:37;1.30;;;1.05;;
76939;SDS011;65885;55.848;35.916;2023-05-10T11:48:08;1.77;;;1.30;;
76939;SDS011;65885;55.848;35.916;2023-05-10T11:50:35;1.83;;;1.10;;
76939;SDS011;65885;55.848;35.916;2023-05-10T11:53:03;1.50;;;1.10;;
76939;SDS011;65885;55.848;35.916;2023-05-10T11:55:33;1.80;;;1.20;;
76939;SDS011;65885;55.848;35.916;2023-05-10T11:58:01;2.13;;;1.25;;
76939;SDS011;65885;55.848;35.916;2023-05-10T12:00:29;1.73;;;1.25;;
76939;SDS011;65885;55.848;35.916;2023-05-10T12:02:59;1.50;;;1.20;;
76939;SDS011;65885;55.848;35.916;2023-05-10T12:05:31;2.42;;;1.30;;
76939;SDS011;65885;55.848;35.916;2023-05-10T12:08:12;2.20;;;1.55;;
76939;SDS011;65885;55.848;35.916;2023-05-10T12:10:40;1.67;;;1.38;;
76939;SDS011;65885;55.848;35.916;2023-05-10T12:13:11;1.45;;;1.10;;
76939;SDS011;65885;55.848;35.916;2023-05-10T12:15:40;1.10;;;1.00;;
76939;SDS011;65885;55.848;35.916;2023-05-10T12:18:08;2.38;;;1.23;;
76939;SDS011;65885;55.848;35.916;2023-05-10T12:20:38;2.17;;;1.38;;
76939;SDS011;65885;55.848;35.916;2023-05-10T12:23:09;1.92;;;1.23;;
76939;SDS011;65885;55.848;35.916;2023-05-10T12:25:37;3.22;;;1.35;;
76939;SDS011;65885;55.848;35.916;2023-05-10T12:28:05;2.67;;;1.40;;
76939;SDS011;65885;55.848;35.916;2023-05-10T12:30:35;1.60;;;1.23;;
76939;SDS011;65885;55.848;35.916;2023-05-10T12:33:07;1.30;;;1.17;;
76939;SDS011;65885;55.848;35.916;2023-05-10T12:35:44;2.90;;;1.13;;
76939;SDS011;65885;55.848;35.916;2023-05-10T12:38:25;1.75;;;1.30;;
76939;SDS011;65885;55.848;35.916;2023-05-10T12:40:55;2.20;;;1.20;;
76939;SDS011;65885;55.848;35.916;2023-05-10T12:43:23;2.15;;;1.30;;
76939;SDS011;65885;55.848;35.916;2023-05-10T12:45:50;2.97;;;1.33;;
76939;SDS011;65885;55.848;35.916;2023-05-10T12:48:18;1.05;;;1.00;;
76939;SDS011;65885;55.848;35.916;2023-05-10T12:50:47;2.70;;;1.40;;
76939;SDS011;65885;55.848;35.916;2023-05-10T12:53:15;1.70;;;1.38;;
76939;SDS011;65885;55.848;35.916;2023-05-10T12:55:43;1.50;;;1.27;;
76939;SDS011;65885;55.848;35.916;2023-05-10T12:58:10;1.27;;;1.17;;
76939;SDS011;65885;55.848;35.916;2023-05-10T13:00:38;1.67;;;1.40;;
76939;SDS011;65885;55.848;35.916;2023-05-10T13:03:06;2.28;;;1.33;;
76939;SDS011;65885;55.848;35.916;2023-05-10T13:05:34;1.92;;;1.40;;
76939;SDS011;65885;55.848;35.916;2023-05-10T13:08:03;4.22;;;1.58;;
76939;SDS011;65885;55.848;35.916;2023-05-10T13:10:31;1.52;;;1.27;;
76939;SDS011;65885;55.848;35.916;2023-05-10T13:12:59;1.80;;;1.38;;
76939;SDS011;65885;55.848;35.916;2023-05-10T13:15:27;1.35;;;1.25;;
76939;SDS011;65885;55.848;35.916;2023-05-10T13:17:54;1.58;;;1.45;;
76939;SDS011;65885;55.848;35.916;2023-05-10T13:20:21;2.78;;;1.50;;
76939;SDS011;65885;55.848;35.916;2023-05-10T13:22:49;1.10;;;0.90;;
76939;SDS011;65885;55.848;35.916;2023-05-10T13:25:18;1.05;;;0.90;;
76939;SDS011;65885;55.848;35.916;2023-05-10T13:27:45;1.63;;;1.30;;
76939;SDS011;65885;55.848;35.916;2023-05-10T13:30:13;1.42;;;0.98;;
76939;SDS011;65885;55.848;35.916;2023-05-10T13:32:40;1.20;;;1.10;;
76939;SDS011;65885;55.848;35.916;2023-05-10T13:35:08;1.50;;;1.38;;
76939;SDS011;65885;55.848;35.916;2023-05-10T13:37:36;1.50;;;1.40;;
76939;SDS011;65885;55.848;35.916;2023-05-10T13:40:04;1.30;;;1.10;;
76939;SDS011;65885;55.848;35.916;2023-05-10T13:42:34;1.50;;;1.20;;
76939;SDS011;65885;55.848;35.916;2023-05-10T13:45:02;1.70;;;1.10;;
76939;SDS011;65885;55.848;35.916;2023-05-10T13:47:33;1.45;;;1.30;;
76939;SDS011;65885;55.848;35.916;2023-05-10T13:50:00;1.20;;;1.02;;
76939;SDS011;65885;55.848;35.916;2023-05-10T13:52:32;1.20;;;1.10;;
76939;SDS011;65885;55.848;35.916;2023-05-10T13:55:00;1.00;;;0.90;;
76939;SDS011;65885;55.848;35.916;2023-05-10T13:57:30;2.40;;;1.20;;
76939;SDS011;65885;55.848;35.916;2023-05-10T14:00:01;1.30;;;1.20;;
76939;SDS011;65885;55.848;35.916;2023-05-10T14:02:31;1.85;;;1.35;;
76939;SDS011;65885;55.848;35.916;2023-05-10T14:04:59;2.17;;;1.30;;
76939;SDS011;65885;55.848;35.916;2023-05-10T14:07:29;1.30;;;1.20;;
76939;SDS011;65885;55.848;35.916;2023-05-10T14:09:56;1.55;;;1.30;;
76939;SDS011;65885;55.848;35.916;2023-05-10T14:12:24;1.40;;;1.30;;
76939;SDS011;65885;55.848;35.916;2023-05-10T14:14:51;2.17;;;1.10;;
76939;SDS011;65885;55.848;35.916;2023-05-10T14:17:21;1.98;;;1.30;;
76939;SDS011;65885;55.848;35.916;2023-05-10T14:19:48;2.08;;;1.00;;
76939;SDS011;65885;55.848;35.916;2023-05-10T14:22:16;1.20;;;0.90;;
76939;SDS011;65885;55.848;35.916;2023-05-10T14:24:43;2.58;;;1.55;;
76939;SDS011;65885;55.848;35.916;2023-05-10T14:27:12;2.53;;;1.45;;
76939;SDS011;65885;55.848;35.916;2023-05-10T14:29:40;2.30;;;1.33;;
76939;SDS011;65885;55.848;35.916;2023-05-10T14:32:07;2.00;;;1.20;;
76939;SDS011;65885;55.848;35.916;2023-05-10T14:34:36;1.23;;;1.08;;
76939;SDS011;65885;55.848;35.916;2023-05-10T14:37:04;1.92;;;1.45;;
76939;SDS011;65885;55.848;35.916;2023-05-10T14:39:31;2.13;;;1.20;;
76939;SDS011;65885;55.848;35.916;2023-05-10T14:41:59;1.73;;;1.20;;
76939;SDS011;65885;55.848;35.916;2023-05-10T14:44:28;1.65;;;1.15;;
76939;SDS011;65885;55.848;35.916;2023-05-10T14:46:56;1.55;;;1.27;;
76939;SDS011;65885;55.848;35.916;2023-05-10T14:49:24;1.50;;;1.20;;
76939;SDS011;65885;55.848;35.916;2023-05-10T14:51:53;1.15;;;1.05;;
76939;SDS011;65885;55.848;35.916;2023-05-10T14:54:20;1.48;;;1.10;;
76939;SDS011;65885;55.848;35.916;2023-05-10T14:56:48;1.70;;;1.25;;
76939;SDS011;65885;55.848;35.916;2023-05-10T14:59:16;1.65;;;1.10;;
76939;SDS011;65885;55.848;35.916;2023-05-10T15:01:44;1.65;;;1.10;;